sensor_id;sensor_type;location;lat;lon;timestamp;temperature;humidity
52189;DHT22;38162;45.926;13.608;2023-04-22T00:01:41;12.40;92.70
52189;DHT22;38162;45.926;13.608;2023-04-22T00:04:07;12.30;92.60
52189;DHT22;38162;45.926;13.608;2023-04-22T00:06:33;12.30;92.70
52189;DHT22;38162;45.926;13.608;2023-04-22T00:08:59;12.30;92.70
52189;DHT22;38162;45.926;13.608;2023-04-22T00:11:25;12.20;92.70
52189;DHT22;38162;45.926;13.608;2023-04-22T00:13:51;12.20;92.80
52189;DHT22;38162;45.926;13.608;2023-04-22T00:16:17;12.20;92.60
52189;DHT22;38162;45.926;13.608;2023-04-22T00:18:43;12.20;92.50
52189;DHT22;38162;45.926;13.608;2023-04-22T00:21:08;12.10;92.40
52189;DHT22;38162;45.926;13.608;2023-04-22T00:23:34;12.10;92.40
52189;DHT22;38162;45.926;13.608;2023-04-22T00:26:00;12.10;92.30
52189;DHT22;38162;45.926;13.608;2023-04-22T00:28:26;12.10;92.30
52189;DHT22;38162;45.926;13.608;2023-04-22T00:30:52;12.10;92.30
52189;DHT22;38162;45.926;13.608;2023-04-22T00:33:18;12.10;92.30
52189;DHT22;38162;45.926;13.608;2023-04-22T00:35:47;12.10;92.40
52189;DHT22;38162;45.926;13.608;2023-04-22T00:38:12;12.10;92.40
52189;DHT22;38162;45.926;13.608;2023-04-22T00:40:38;12.00;92.50
52189;DHT22;38162;45.926;13.608;2023-04-22T00:43:04;12.00;92.40
52189;DHT22;38162;45.926;13.608;2023-04-22T00:45:30;12.00;92.40
52189;DHT22;38162;45.926;13.608;2023-04-22T00:47:56;12.00;92.50
52189;DHT22;38162;45.926;13.608;2023-04-22T00:50:22;11.90;92.60
52189;DHT22;38162;45.926;13.608;2023-04-22T00:52:48;11.90;92.60
52189;DHT22;38162;45.926;13.608;2023-04-22T00:55:13;11.80;92.60
52189;DHT22;38162;45.926;13.608;2023-04-22T00:57:40;11.80;92.60
52189;DHT22;38162;45.926;13.608;2023-04-22T01:00:06;11.80;92.60
52189;DHT22;38162;45.926;13.608;2023-04-22T01:02:36;11.80;92.70
52189;DHT22;38162;45.926;13.608;2023-04-22T01:05:03;11.70;92.70
52189;DHT22;38162;45.926;13.608;2023-04-22T01:07:29;11.70;92.80
52189;DHT22;38162;45.926;13.608;2023-04-22T01:09:55;11.70;92.80
52189;DHT22;38162;45.926;13.608;2023-04-22T01:12:21;11.70;92.80
52189;DHT22;38162;45.926;13.608;2023-04-22T01:14:47;11.70;92.80
52189;DHT22;38162;45.926;13.608;2023-04-22T01:17:15;11.70;92.80
52189;DHT22;38162;45.926;13.608;2023-04-22T01:19:41;11.70;92.80
52189;DHT22;38162;45.926;13.608;2023-04-22T01:22:07;11.60;92.80
52189;DHT22;38162;45.926;13.608;2023-04-22T01:24:36;11.60;92.80
52189;DHT22;38162;45.926;13.608;2023-04-22T01:27:02;11.60;92.90
52189;DHT22;38162;45.926;13.608;2023-04-22T01:29:27;11.60;92.90
52189;DHT22;38162;45.926;13.608;2023-04-22T01:31:54;11.60;92.90
52189;DHT22;38162;45.926;13.608;2023-04-22T01:34:20;11.50;92.90
52189;DHT22;38162;45.926;13.608;2023-04-22T01:36:47;11.50;93.00
52189;DHT22;38162;45.926;13.608;2023-04-22T01:39:13;11.50;93.00
52189;DHT22;38162;45.926;13.608;2023-04-22T01:41:39;11.50;93.20
52189;DHT22;38162;45.926;13.608;2023-04-22T01:44:05;11.50;93.20
52189;DHT22;38162;45.926;13.608;2023-04-22T01:46:32;11.50;93.60
52189;DHT22;38162;45.926;13.608;2023-04-22T01:48:58;11.50;93.40
52189;DHT22;38162;45.926;13.608;2023-04-22T01:51:23;11.50;93.30
52189;DHT22;38162;45.926;13.608;2023-04-22T01:53:50;11.50;93.30
52189;DHT22;38162;45.926;13.608;2023-04-22T01:56:16;11.50;93.30
52189;DHT22;38162;45.926;13.608;2023-04-22T01:58:42;11.50;93.30
52189;DHT22;38162;45.926;13.608;2023-04-22T02:01:09;11.50;93.30
52189;DHT22;38162;45.926;13.608;2023-04-22T02:03:35;11.50;93.30
52189;DHT22;38162;45.926;13.608;2023-04-22T02:06:01;11.40;93.30
52189;DHT22;38162;45.926;13.608;2023-04-22T02:08:27;11.40;93.20
52189;DHT22;38162;45.926;13.608;2023-04-22T02:10:53;11.40;93.20
52189;DHT22;38162;45.926;13.608;2023-04-22T02:13:18;11.40;93.20
52189;DHT22;38162;45.926;13.608;2023-04-22T02:15:44;11.40;93.20
52189;DHT22;38162;45.926;13.608;2023-04-22T02:18:10;11.30;93.20
52189;DHT22;38162;45.926;13.608;2023-04-22T02:20:36;11.30;93.10
52189;DHT22;38162;45.926;13.608;2023-04-22T02:23:02;11.30;93.10
52189;DHT22;38162;45.926;13.608;2023-04-22T02:25:28;11.30;93.10
52189;DHT22;38162;45.926;13.608;2023-04-22T02:27:55;11.30;93.20
52189;DHT22;38162;45.926;13.608;2023-04-22T02:30:21;11.20;93.10
52189;DHT22;38162;45.926;13.608;2023-04-22T02:32:47;11.20;93.20
52189;DHT22;38162;45.926;13.608;2023-04-22T02:35:12;11.20;93.10
52189;DHT22;38162;45.926;13.608;2023-04-22T02:37:38;11.20;93.20
52189;DHT22;38162;45.926;13.608;2023-04-22T02:40:04;11.10;93.20
52189;DHT22;38162;45.926;13.608;2023-04-22T02:42:32;11.10;93.20
52189;DHT22;38162;45.926;13.608;2023-04-22T02:44:57;11.10;93.30
52189;DHT22;38162;45.926;13.608;2023-04-22T02:47:24;11.10;93.30
52189;DHT22;38162;45.926;13.608;2023-04-22T02:49:49;11.10;93.20
52189;DHT22;38162;45.926;13.608;2023-04-22T02:52:15;11.10;93.10
52189;DHT22;38162;45.926;13.608;2023-04-22T02:54:41;11.10;93.10
52189;DHT22;38162;45.926;13.608;2023-04-22T02:57:06;11.10;93.10
52189;DHT22;38162;45.926;13.608;2023-04-22T02:59:34;11.10;93.10
52189;DHT22;38162;45.926;13.608;2023-04-22T03:02:01;11.10;93.10
52189;DHT22;38162;45.926;13.608;2023-04-22T03:04:26;11.00;93.10
52189;DHT22;38162;45.926;13.608;2023-04-22T03:06:52;11.00;93.20
52189;DHT22;38162;45.926;13.608;2023-04-22T03:09:18;11.00;93.20
52189;DHT22;38162;45.926;13.608;2023-04-22T03:11:44;11.00;93.20
52189;DHT22;38162;45.926;13.608;2023-04-22T03:14:09;11.00;93.30
52189;DHT22;38162;45.926;13.608;2023-04-22T03:16:35;11.00;93.30
52189;DHT22;38162;45.926;13.608;2023-04-22T03:19:01;11.00;93.20
52189;DHT22;38162;45.926;13.608;2023-04-22T03:21:27;11.00;93.20
52189;DHT22;38162;45.926;13.608;2023-04-22T03:23:53;11.00;93.10
52189;DHT22;38162;45.926;13.608;2023-04-22T03:26:19;10.90;93.20
52189;DHT22;38162;45.926;13.608;2023-04-22T03:28:44;10.90;93.30
52189;DHT22;38162;45.926;13.608;2023-04-22T03:31:10;10.90;93.30
52189;DHT22;38162;45.926;13.608;2023-04-22T03:33:36;10.80;93.30
52189;DHT22;38162;45.926;13.608;2023-04-22T03:36:02;10.80;93.30
52189;DHT22;38162;45.926;13.608;2023-04-22T03:38:28;10.80;93.30
52189;DHT22;38162;45.926;13.608;2023-04-22T03:40:54;10.80;93.30
52189;DHT22;38162;45.926;13.608;2023-04-22T03:43:20;10.80;93.40
52189;DHT22;38162;45.926;13.608;2023-04-22T03:45:46;10.80;93.30
52189;DHT22;38162;45.926;13.608;2023-04-22T03:48:11;10.80;93.30
52189;DHT22;38162;45.926;13.608;2023-04-22T03:50:37;10.80;93.30
52189;DHT22;38162;45.926;13.608;2023-04-22T03:53:03;10.70;93.30
52189;DHT22;38162;45.926;13.608;2023-04-22T03:55:29;10.70;93.20
52189;DHT22;38162;45.926;13.608;2023-04-22T03:57:55;10.70;93.20
52189;DHT22;38162;45.926;13.608;2023-04-22T04:00:21;10.70;93.20
52189;DHT22;38162;45.926;13.608;2023-04-22T04:02:46;10.70;93.30
52189;DHT22;38162;45.926;13.608;2023-04-22T04:05:12;10.60;93.30
52189;DHT22;38162;45.926;13.608;2023-04-22T04:07:38;10.60;93.30
52189;DHT22;38162;45.926;13.608;2023-04-22T04:10:04;10.60;93.40
52189;DHT22;38162;45.926;13.608;2023-04-22T04:12:30;10.50;93.30
52189;DHT22;38162;45.926;13.608;2023-04-22T04:14:56;10.50;93.30
52189;DHT22;38162;45.926;13.608;2023-04-22T04:17:21;10.50;93.30
52189;DHT22;38162;45.926;13.608;2023-04-22T04:19:51;10.50;93.30
52189;DHT22;38162;45.926;13.608;2023-04-22T04:22:16;10.50;93.40
52189;DHT22;38162;45.926;13.608;2023-04-22T04:24:43;10.40;93.50
52189;DHT22;38162;45.926;13.608;2023-04-22T04:27:09;10.40;93.50
52189;DHT22;38162;45.926;13.608;2023-04-22T04:29:36;10.40;93.60
52189;DHT22;38162;45.926;13.608;2023-04-22T04:32:02;10.30;93.60
52189;DHT22;38162;45.926;13.608;2023-04-22T04:34:29;10.30;93.70
52189;DHT22;38162;45.926;13.608;2023-04-22T04:36:54;10.30;93.60
52189;DHT22;38162;45.926;13.608;2023-04-22T04:39:21;10.30;93.70
52189;DHT22;38162;45.926;13.608;2023-04-22T04:41:47;10.30;93.70
52189;DHT22;38162;45.926;13.608;2023-04-22T04:44:13;10.30;93.70
52189;DHT22;38162;45.926;13.608;2023-04-22T04:46:40;10.20;93.60
52189;DHT22;38162;45.926;13.608;2023-04-22T04:49:06;10.20;93.50
52189;DHT22;38162;45.926;13.608;2023-04-22T04:51:34;10.20;93.60
52189;DHT22;38162;45.926;13.608;2023-04-22T04:54:00;10.20;93.70
52189;DHT22;38162;45.926;13.608;2023-04-22T04:56:25;10.20;93.80
52189;DHT22;38162;45.926;13.608;2023-04-22T04:58:51;10.20;93.90
52189;DHT22;38162;45.926;13.608;2023-04-22T05:01:17;10.30;94.00
52189;DHT22;38162;45.926;13.608;2023-04-22T05:03:43;10.30;94.00
52189;DHT22;38162;45.926;13.608;2023-04-22T05:06:08;10.40;94.20
52189;DHT22;38162;45.926;13.608;2023-04-22T05:08:35;10.40;94.20
52189;DHT22;38162;45.926;13.608;2023-04-22T05:11:00;10.40;94.30
52189;DHT22;38162;45.926;13.608;2023-04-22T05:13:26;10.40;94.50
52189;DHT22;38162;45.926;13.608;2023-04-22T05:15:52;10.40;94.20
52189;DHT22;38162;45.926;13.608;2023-04-22T05:18:18;10.40;94.30
52189;DHT22;38162;45.926;13.608;2023-04-22T05:20:44;10.40;94.30
52189;DHT22;38162;45.926;13.608;2023-04-22T05:23:09;10.50;94.50
52189;DHT22;38162;45.926;13.608;2023-04-22T05:25:35;10.60;94.50
52189;DHT22;38162;45.926;13.608;2023-04-22T05:28:01;10.60;94.70
52189;DHT22;38162;45.926;13.608;2023-04-22T05:30:27;10.70;94.70
52189;DHT22;38162;45.926;13.608;2023-04-22T05:32:52;10.80;94.60
52189;DHT22;38162;45.926;13.608;2023-04-22T05:35:18;10.80;94.60
52189;DHT22;38162;45.926;13.608;2023-04-22T05:37:44;10.90;94.70
52189;DHT22;38162;45.926;13.608;2023-04-22T05:40:10;10.90;94.60
52189;DHT22;38162;45.926;13.608;2023-04-22T05:42:35;11.00;94.70
52189;DHT22;38162;45.926;13.608;2023-04-22T05:45:01;11.00;94.50
52189;DHT22;38162;45.926;13.608;2023-04-22T05:47:28;11.10;94.50
52189;DHT22;38162;45.926;13.608;2023-04-22T05:49:54;11.10;94.50
52189;DHT22;38162;45.926;13.608;2023-04-22T05:52:19;11.10;94.50
52189;DHT22;38162;45.926;13.608;2023-04-22T05:54:45;11.10;94.50
52189;DHT22;38162;45.926;13.608;2023-04-22T05:57:11;11.20;94.60
52189;DHT22;38162;45.926;13.608;2023-04-22T05:59:37;11.20;94.70
52189;DHT22;38162;45.926;13.608;2023-04-22T06:02:02;11.30;94.70
52189;DHT22;38162;45.926;13.608;2023-04-22T06:04:28;11.40;94.80
52189;DHT22;38162;45.926;13.608;2023-04-22T06:06:55;11.40;94.80
52189;DHT22;38162;45.926;13.608;2023-04-22T06:09:21;11.50;94.70
52189;DHT22;38162;45.926;13.608;2023-04-22T06:11:47;11.50;94.70
52189;DHT22;38162;45.926;13.608;2023-04-22T06:14:13;11.60;94.70
52189;DHT22;38162;45.926;13.608;2023-04-22T06:16:38;11.70;94.60
52189;DHT22;38162;45.926;13.608;2023-04-22T06:19:05;11.80;94.60
52189;DHT22;38162;45.926;13.608;2023-04-22T06:21:31;11.80;94.70
52189;DHT22;38162;45.926;13.608;2023-04-22T06:24:01;11.90;94.70
52189;DHT22;38162;45.926;13.608;2023-04-22T06:26:29;12.00;94.70
52189;DHT22;38162;45.926;13.608;2023-04-22T06:28:55;12.00;94.70
52189;DHT22;38162;45.926;13.608;2023-04-22T06:31:21;12.00;94.70
52189;DHT22;38162;45.926;13.608;2023-04-22T06:33:47;12.10;94.70
52189;DHT22;38162;45.926;13.608;2023-04-22T06:36:12;12.10;94.60
52189;DHT22;38162;45.926;13.608;2023-04-22T06:38:38;12.20;94.50
52189;DHT22;38162;45.926;13.608;2023-04-22T06:41:04;12.20;94.40
52189;DHT22;38162;45.926;13.608;2023-04-22T06:43:30;12.30;94.40
52189;DHT22;38162;45.926;13.608;2023-04-22T06:45:56;12.30;94.20
52189;DHT22;38162;45.926;13.608;2023-04-22T06:48:22;12.40;94.10
52189;DHT22;38162;45.926;13.608;2023-04-22T06:50:48;12.40;94.30
52189;DHT22;38162;45.926;13.608;2023-04-22T06:53:14;12.50;94.30
52189;DHT22;38162;45.926;13.608;2023-04-22T06:55:40;12.60;94.30
52189;DHT22;38162;45.926;13.608;2023-04-22T06:58:06;12.60;94.10
52189;DHT22;38162;45.926;13.608;2023-04-22T07:00:31;12.70;93.90
52189;DHT22;38162;45.926;13.608;2023-04-22T07:02:57;12.70;93.80
52189;DHT22;38162;45.926;13.608;2023-04-22T07:05:23;12.80;93.80
52189;DHT22;38162;45.926;13.608;2023-04-22T07:07:49;12.80;93.70
52189;DHT22;38162;45.926;13.608;2023-04-22T07:10:14;12.90;93.80
52189;DHT22;38162;45.926;13.608;2023-04-22T07:12:40;12.90;93.80
52189;DHT22;38162;45.926;13.608;2023-04-22T07:15:06;13.00;93.60
52189;DHT22;38162;45.926;13.608;2023-04-22T07:17:32;13.10;93.40
52189;DHT22;38162;45.926;13.608;2023-04-22T07:19:58;13.10;93.00
52189;DHT22;38162;45.926;13.608;2023-04-22T07:22:24;13.10;92.80
52189;DHT22;38162;45.926;13.608;2023-04-22T07:24:50;13.20;92.90
52189;DHT22;38162;45.926;13.608;2023-04-22T07:27:16;13.30;92.80
52189;DHT22;38162;45.926;13.608;2023-04-22T07:29:41;13.30;92.40
52189;DHT22;38162;45.926;13.608;2023-04-22T07:32:07;13.40;92.30
52189;DHT22;38162;45.926;13.608;2023-04-22T07:34:33;13.50;92.30
52189;DHT22;38162;45.926;13.608;2023-04-22T07:36:59;13.50;91.90
52189;DHT22;38162;45.926;13.608;2023-04-22T07:39:25;13.60;91.60
52189;DHT22;38162;45.926;13.608;2023-04-22T07:41:51;13.70;91.60
52189;DHT22;38162;45.926;13.608;2023-04-22T07:44:17;13.70;91.20
52189;DHT22;38162;45.926;13.608;2023-04-22T07:46:46;13.90;91.20
52189;DHT22;38162;45.926;13.608;2023-04-22T07:49:12;13.90;91.10
52189;DHT22;38162;45.926;13.608;2023-04-22T07:51:39;14.00;90.90
52189;DHT22;38162;45.926;13.608;2023-04-22T07:54:05;14.10;90.70
52189;DHT22;38162;45.926;13.608;2023-04-22T07:56:31;14.20;90.60
52189;DHT22;38162;45.926;13.608;2023-04-22T07:58:56;14.30;90.50
52189;DHT22;38162;45.926;13.608;2023-04-22T08:01:22;14.30;90.80
52189;DHT22;38162;45.926;13.608;2023-04-22T08:03:48;14.40;90.60
52189;DHT22;38162;45.926;13.608;2023-04-22T08:06:14;14.50;90.40
52189;DHT22;38162;45.926;13.608;2023-04-22T08:08:39;14.60;90.00
52189;DHT22;38162;45.926;13.608;2023-04-22T08:11:06;14.70;88.70
52189;DHT22;38162;45.926;13.608;2023-04-22T08:13:31;14.80;88.60
52189;DHT22;38162;45.926;13.608;2023-04-22T08:15:59;14.90;88.30
52189;DHT22;38162;45.926;13.608;2023-04-22T08:18:27;14.90;86.70
52189;DHT22;38162;45.926;13.608;2023-04-22T08:20:53;15.00;86.00
52189;DHT22;38162;45.926;13.608;2023-04-22T08:23:19;15.00;83.70
52189;DHT22;38162;45.926;13.608;2023-04-22T08:25:46;15.10;83.80
52189;DHT22;38162;45.926;13.608;2023-04-22T08:28:12;15.20;84.50
52189;DHT22;38162;45.926;13.608;2023-04-22T08:30:38;15.30;84.80
52189;DHT22;38162;45.926;13.608;2023-04-22T08:33:04;15.30;84.60
52189;DHT22;38162;45.926;13.608;2023-04-22T08:35:30;15.50;85.10
52189;DHT22;38162;45.926;13.608;2023-04-22T08:37:55;15.50;84.30
52189;DHT22;38162;45.926;13.608;2023-04-22T08:40:21;15.60;83.70
52189;DHT22;38162;45.926;13.608;2023-04-22T08:42:47;15.70;82.80
52189;DHT22;38162;45.926;13.608;2023-04-22T08:45:14;15.80;82.70
52189;DHT22;38162;45.926;13.608;2023-04-22T08:47:41;15.80;83.10
52189;DHT22;38162;45.926;13.608;2023-04-22T08:50:08;15.90;82.40
52189;DHT22;38162;45.926;13.608;2023-04-22T08:52:34;16.00;81.10
52189;DHT22;38162;45.926;13.608;2023-04-22T08:55:00;16.00;80.50
52189;DHT22;38162;45.926;13.608;2023-04-22T08:57:26;16.10;78.60
52189;DHT22;38162;45.926;13.608;2023-04-22T08:59:54;16.10;78.90
52189;DHT22;38162;45.926;13.608;2023-04-22T09:02:22;16.20;79.00
52189;DHT22;38162;45.926;13.608;2023-04-22T09:04:50;16.30;78.90
52189;DHT22;38162;45.926;13.608;2023-04-22T09:07:22;16.40;77.90
52189;DHT22;38162;45.926;13.608;2023-04-22T09:09:49;16.50;78.40
52189;DHT22;38162;45.926;13.608;2023-04-22T09:12:15;16.60;77.70
52189;DHT22;38162;45.926;13.608;2023-04-22T09:14:44;16.60;77.10
52189;DHT22;38162;45.926;13.608;2023-04-22T09:17:11;16.70;76.70
52189;DHT22;38162;45.926;13.608;2023-04-22T09:19:39;16.80;76.20
52189;DHT22;38162;45.926;13.608;2023-04-22T09:22:07;16.80;76.00
52189;DHT22;38162;45.926;13.608;2023-04-22T09:24:33;16.90;75.30
52189;DHT22;38162;45.926;13.608;2023-04-22T09:27:01;16.90;75.40
52189;DHT22;38162;45.926;13.608;2023-04-22T09:29:29;17.00;74.70
52189;DHT22;38162;45.926;13.608;2023-04-22T09:31:56;17.10;74.70
52189;DHT22;38162;45.926;13.608;2023-04-22T09:34:22;17.20;74.10
52189;DHT22;38162;45.926;13.608;2023-04-22T09:36:50;17.30;72.20
52189;DHT22;38162;45.926;13.608;2023-04-22T09:39:17;17.40;71.80
52189;DHT22;38162;45.926;13.608;2023-04-22T09:41:43;17.50;72.40
52189;DHT22;38162;45.926;13.608;2023-04-22T09:44:14;17.60;73.90
52189;DHT22;38162;45.926;13.608;2023-04-22T09:46:41;17.70;73.10
52189;DHT22;38162;45.926;13.608;2023-04-22T09:49:08;17.80;71.60
52189;DHT22;38162;45.926;13.608;2023-04-22T09:51:33;17.90;71.90
52189;DHT22;38162;45.926;13.608;2023-04-22T09:54:04;17.90;72.50
52189;DHT22;38162;45.926;13.608;2023-04-22T09:56:46;18.00;72.40
52189;DHT22;38162;45.926;13.608;2023-04-22T09:59:22;18.10;72.40
52189;DHT22;38162;45.926;13.608;2023-04-22T10:01:52;18.20;71.90
52189;DHT22;38162;45.926;13.608;2023-04-22T10:04:18;18.30;71.60
52189;DHT22;38162;45.926;13.608;2023-04-22T10:06:50;18.40;71.20
52189;DHT22;38162;45.926;13.608;2023-04-22T10:09:18;18.50;70.50
52189;DHT22;38162;45.926;13.608;2023-04-22T10:11:45;18.60;70.00
52189;DHT22;38162;45.926;13.608;2023-04-22T10:14:11;18.70;69.60
52189;DHT22;38162;45.926;13.608;2023-04-22T10:16:40;18.80;70.10
52189;DHT22;38162;45.926;13.608;2023-04-22T10:19:11;18.90;69.30
52189;DHT22;38162;45.926;13.608;2023-04-22T10:21:40;19.00;69.00
52189;DHT22;38162;45.926;13.608;2023-04-22T10:24:17;19.10;69.00
52189;DHT22;38162;45.926;13.608;2023-04-22T10:27:10;19.20;66.50
52189;DHT22;38162;45.926;13.608;2023-04-22T10:29:37;19.30;65.90
52189;DHT22;38162;45.926;13.608;2023-04-22T10:34:44;19.40;65.10
52189;DHT22;38162;45.926;13.608;2023-04-22T10:37:11;19.40;65.10
52189;DHT22;38162;45.926;13.608;2023-04-22T10:39:39;19.50;67.40
52189;DHT22;38162;45.926;13.608;2023-04-22T10:42:10;19.60;67.00
52189;DHT22;38162;45.926;13.608;2023-04-22T10:45:11;19.60;66.30
52189;DHT22;38162;45.926;13.608;2023-04-22T10:47:38;19.70;65.10
52189;DHT22;38162;45.926;13.608;2023-04-22T10:50:15;19.70;65.40
52189;DHT22;38162;45.926;13.608;2023-04-22T10:52:42;19.90;64.90
52189;DHT22;38162;45.926;13.608;2023-04-22T10:55:08;19.90;65.90
52189;DHT22;38162;45.926;13.608;2023-04-22T10:57:40;20.00;63.10
52189;DHT22;38162;45.926;13.608;2023-04-22T11:00:28;20.10;63.10
52189;DHT22;38162;45.926;13.608;2023-04-22T11:03:08;20.10;63.70
52189;DHT22;38162;45.926;13.608;2023-04-22T11:05:36;20.20;63.50
52189;DHT22;38162;45.926;13.608;2023-04-22T11:08:04;20.40;62.30
52189;DHT22;38162;45.926;13.608;2023-04-22T11:10:45;20.40;61.70
52189;DHT22;38162;45.926;13.608;2023-04-22T11:13:17;20.50;62.30
52189;DHT22;38162;45.926;13.608;2023-04-22T11:15:44;20.50;62.40
52189;DHT22;38162;45.926;13.608;2023-04-22T11:18:20;20.60;61.00
52189;DHT22;38162;45.926;13.608;2023-04-22T11:20:47;20.60;62.50
52189;DHT22;38162;45.926;13.608;2023-04-22T11:23:25;20.60;59.90
52189;DHT22;38162;45.926;13.608;2023-04-22T11:25:55;20.60;59.90
52189;DHT22;38162;45.926;13.608;2023-04-22T11:28:22;20.70;60.60
52189;DHT22;38162;45.926;13.608;2023-04-22T11:30:48;20.70;60.40
52189;DHT22;38162;45.926;13.608;2023-04-22T11:33:15;20.80;58.70
52189;DHT22;38162;45.926;13.608;2023-04-22T11:35:41;20.80;57.60
52189;DHT22;38162;45.926;13.608;2023-04-22T11:38:07;20.90;59.10
52189;DHT22;38162;45.926;13.608;2023-04-22T11:40:36;20.90;58.00
52189;DHT22;38162;45.926;13.608;2023-04-22T11:43:04;21.00;55.70
52189;DHT22;38162;45.926;13.608;2023-04-22T11:45:33;21.00;54.70
52189;DHT22;38162;45.926;13.608;2023-04-22T11:48:00;21.00;54.50
52189;DHT22;38162;45.926;13.608;2023-04-22T11:50:33;21.10;56.00
52189;DHT22;38162;45.926;13.608;2023-04-22T11:55:37;21.10;58.40
52189;DHT22;38162;45.926;13.608;2023-04-22T11:58:11;21.20;58.10
52189;DHT22;38162;45.926;13.608;2023-04-22T12:00:43;21.30;58.40
52189;DHT22;38162;45.926;13.608;2023-04-22T12:03:13;21.30;57.50
52189;DHT22;38162;45.926;13.608;2023-04-22T12:05:44;21.40;58.10
52189;DHT22;38162;45.926;13.608;2023-04-22T12:08:15;21.40;56.80
52189;DHT22;38162;45.926;13.608;2023-04-22T12:10:42;21.50;57.00
52189;DHT22;38162;45.926;13.608;2023-04-22T12:13:09;21.60;57.90
52189;DHT22;38162;45.926;13.608;2023-04-22T12:15:42;21.70;55.90
52189;DHT22;38162;45.926;13.608;2023-04-22T12:18:09;21.70;55.20
52189;DHT22;38162;45.926;13.608;2023-04-22T12:20:38;21.80;55.10
52189;DHT22;38162;45.926;13.608;2023-04-22T12:23:04;21.80;54.70
52189;DHT22;38162;45.926;13.608;2023-04-22T12:25:30;21.90;54.20
52189;DHT22;38162;45.926;13.608;2023-04-22T12:27:58;22.00;55.30
52189;DHT22;38162;45.926;13.608;2023-04-22T12:30:24;22.10;54.60
52189;DHT22;38162;45.926;13.608;2023-04-22T12:32:51;22.20;55.10
52189;DHT22;38162;45.926;13.608;2023-04-22T12:35:17;22.30;54.30
52189;DHT22;38162;45.926;13.608;2023-04-22T12:37:42;22.30;54.30
52189;DHT22;38162;45.926;13.608;2023-04-22T12:40:08;22.40;53.70
52189;DHT22;38162;45.926;13.608;2023-04-22T12:42:34;22.40;53.60
52189;DHT22;38162;45.926;13.608;2023-04-22T12:45:01;22.30;54.80
52189;DHT22;38162;45.926;13.608;2023-04-22T12:47:26;22.30;55.50
52189;DHT22;38162;45.926;13.608;2023-04-22T12:49:52;22.30;55.60
52189;DHT22;38162;45.926;13.608;2023-04-22T12:52:18;22.40;56.20
52189;DHT22;38162;45.926;13.608;2023-04-22T12:54:43;22.40;56.30
52189;DHT22;38162;45.926;13.608;2023-04-22T12:57:09;22.50;56.40
52189;DHT22;38162;45.926;13.608;2023-04-22T12:59:36;22.50;56.40
52189;DHT22;38162;45.926;13.608;2023-04-22T13:02:02;22.60;56.60
52189;DHT22;38162;45.926;13.608;2023-04-22T13:04:27;22.60;55.50
52189;DHT22;38162;45.926;13.608;2023-04-22T13:06:53;22.60;54.00
52189;DHT22;38162;45.926;13.608;2023-04-22T13:09:24;22.60;54.00
52189;DHT22;38162;45.926;13.608;2023-04-22T13:11:51;22.70;55.40
52189;DHT22;38162;45.926;13.608;2023-04-22T13:14:17;22.70;54.00
52189;DHT22;38162;45.926;13.608;2023-04-22T13:16:43;22.70;52.60
52189;DHT22;38162;45.926;13.608;2023-04-22T13:19:09;22.80;54.00
52189;DHT22;38162;45.926;13.608;2023-04-22T13:21:35;22.80;55.40
52189;DHT22;38162;45.926;13.608;2023-04-22T13:24:00;22.70;55.70
52189;DHT22;38162;45.926;13.608;2023-04-22T13:26:26;22.70;54.50
52189;DHT22;38162;45.926;13.608;2023-04-22T13:28:52;22.60;55.50
52189;DHT22;38162;45.926;13.608;2023-04-22T13:31:18;22.60;55.30
52189;DHT22;38162;45.926;13.608;2023-04-22T13:33:43;22.50;55.40
52189;DHT22;38162;45.926;13.608;2023-04-22T13:36:11;22.50;55.80
52189;DHT22;38162;45.926;13.608;2023-04-22T13:38:37;22.40;56.80
52189;DHT22;38162;45.926;13.608;2023-04-22T13:41:02;22.40;54.70
52189;DHT22;38162;45.926;13.608;2023-04-22T13:43:28;22.50;56.70
52189;DHT22;38162;45.926;13.608;2023-04-22T13:45:54;22.50;56.50
52189;DHT22;38162;45.926;13.608;2023-04-22T13:48:20;22.50;55.90
52189;DHT22;38162;45.926;13.608;2023-04-22T13:50:46;22.50;56.70
52189;DHT22;38162;45.926;13.608;2023-04-22T13:53:12;22.60;56.80
52189;DHT22;38162;45.926;13.608;2023-04-22T13:55:38;22.60;56.80
52189;DHT22;38162;45.926;13.608;2023-04-22T13:58:04;22.60;55.10
52189;DHT22;38162;45.926;13.608;2023-04-22T14:00:32;22.60;55.50
52189;DHT22;38162;45.926;13.608;2023-04-22T14:02:58;22.60;55.40
52189;DHT22;38162;45.926;13.608;2023-04-22T14:05:23;22.60;56.20
52189;DHT22;38162;45.926;13.608;2023-04-22T14:07:49;22.60;55.80
52189;DHT22;38162;45.926;13.608;2023-04-22T14:10:16;22.60;55.30
52189;DHT22;38162;45.926;13.608;2023-04-22T14:12:45;22.70;55.20
52189;DHT22;38162;45.926;13.608;2023-04-22T14:15:11;22.60;55.30
52189;DHT22;38162;45.926;13.608;2023-04-22T14:17:38;22.60;53.70
52189;DHT22;38162;45.926;13.608;2023-04-22T14:20:04;22.60;54.10
52189;DHT22;38162;45.926;13.608;2023-04-22T14:22:31;22.50;53.80
52189;DHT22;38162;45.926;13.608;2023-04-22T14:24:57;22.50;54.60
52189;DHT22;38162;45.926;13.608;2023-04-22T14:27:23;22.60;55.30
52189;DHT22;38162;45.926;13.608;2023-04-22T14:29:48;22.60;54.00
52189;DHT22;38162;45.926;13.608;2023-04-22T14:32:17;22.60;54.60
52189;DHT22;38162;45.926;13.608;2023-04-22T14:34:43;22.60;55.30
52189;DHT22;38162;45.926;13.608;2023-04-22T14:37:10;22.60;55.10
52189;DHT22;38162;45.926;13.608;2023-04-22T14:39:36;22.60;54.80
52189;DHT22;38162;45.926;13.608;2023-04-22T14:42:02;22.60;54.10
52189;DHT22;38162;45.926;13.608;2023-04-22T14:44:28;22.50;53.30
52189;DHT22;38162;45.926;13.608;2023-04-22T14:46:54;22.50;55.70
52189;DHT22;38162;45.926;13.608;2023-04-22T14:49:20;22.50;52.10
52189;DHT22;38162;45.926;13.608;2023-04-22T14:51:46;22.50;54.60
52189;DHT22;38162;45.926;13.608;2023-04-22T14:54:12;22.50;55.30
52189;DHT22;38162;45.926;13.608;2023-04-22T14:56:38;22.50;55.30
52189;DHT22;38162;45.926;13.608;2023-04-22T14:59:04;22.50;55.20
52189;DHT22;38162;45.926;13.608;2023-04-22T15:01:31;22.50;54.80
52189;DHT22;38162;45.926;13.608;2023-04-22T15:03:57;22.50;54.50
52189;DHT22;38162;45.926;13.608;2023-04-22T15:06:22;22.60;56.10
52189;DHT22;38162;45.926;13.608;2023-04-22T15:08:48;22.60;55.40
52189;DHT22;38162;45.926;13.608;2023-04-22T15:11:16;22.60;53.00
52189;DHT22;38162;45.926;13.608;2023-04-22T15:13:42;22.60;52.70
52189;DHT22;38162;45.926;13.608;2023-04-22T15:16:08;22.60;52.90
52189;DHT22;38162;45.926;13.608;2023-04-22T15:18:34;22.60;54.30